sensor_id;sensor_type;location;lat;lon;timestamp;pressure;altitude;pressure_sealevel;temperature;humidity
19884;BME280;10104;50.732;10.174;2023-02-03T00:02:03;98624.75;;;6.49;100.00
19884;BME280;10104;50.732;10.174;2023-02-03T00:04:24;98613.25;;;6.50;100.00
19884;BME280;10104;50.732;10.174;2023-02-03T00:06:46;98626.28;;;6.52;100.00
19884;BME280;10104;50.732;10.174;2023-02-03T00:09:08;98622.38;;;6.56;100.00
19884;BME280;10104;50.732;10.174;2023-02-03T00:11:30;98623.59;;;6.61;100.00
19884;BME280;10104;50.732;10.174;2023-02-03T00:13:52;98611.78;;;6.47;100.00
19884;BME280;10104;50.732;10.174;2023-02-03T00:16:13;98611.59;;;6.59;100.00
19884;BME280;10104;50.732;10.174;2023-02-03T00:18:35;98622.94;;;6.59;100.00
19884;BME280;10104;50.732;10.174;2023-02-03T00:20:56;98614.88;;;6.61;100.00
19884;BME280;10104;50.732;10.174;2023-02-03T00:23:18;98621.28;;;6.58;100.00
19884;BME280;10104;50.732;10.174;2023-02-03T00:25:40;98619.28;;;6.70;100.00
19884;BME280;10104;50.732;10.174;2023-02-03T00:28:02;98610.03;;;6.66;100.00
19884;BME280;10104;50.732;10.174;2023-02-03T00:30:24;98618.50;;;6.60;100.00
19884;BME280;10104;50.732;10.174;2023-02-03T00:32:45;98621.66;;;6.63;100.00
19884;BME280;10104;50.732;10.174;2023-02-03T00:35:07;98622.94;;;6.59;100.00
19884;BME280;10104;50.732;10.174;2023-02-03T00:37:28;98621.53;;;6.55;100.00
19884;BME280;10104;50.732;10.174;2023-02-03T00:39:50;98613.38;;;6.58;100.00
19884;BME280;10104;50.732;10.174;2023-02-03T00:42:12;98599.53;;;6.56;100.00
19884;BME280;10104;50.732;10.174;2023-02-03T00:44:33;98584.47;;;6.48;100.00
19884;BME280;10104;50.732;10.174;2023-02-03T00:46:54;98599.84;;;6.53;100.00
19884;BME280;10104;50.732;10.174;2023-02-03T00:49:16;98597.03;;;6.55;100.00
19884;BME280;10104;50.732;10.174;2023-02-03T00:51:37;98603.38;;;6.62;100.00
19884;BME280;10104;50.732;10.174;2023-02-03T00:53:59;98581.69;;;6.50;100.00
19884;BME280;10104;50.732;10.174;2023-02-03T00:56:20;98587.66;;;6.52;100.00
19884;BME280;10104;50.732;10.174;2023-02-03T00:58:42;98594.41;;;6.55;100.00
19884;BME280;10104;50.732;10.174;2023-02-03T01:01:04;98596.31;;;6.62;100.00
19884;BME280;10104;50.732;10.174;2023-02-03T01:03:26;98594.75;;;6.69;100.00
19884;BME280;10104;50.732;10.174;2023-02-03T01:05:47;98589.63;;;6.68;100.00
19884;BME280;10104;50.732;10.174;2023-02-03T01:08:08;98585.78;;;6.62;100.00
19884;BME280;10104;50.732;10.174;2023-02-03T01:10:30;98566.03;;;6.58;100.00
19884;BME280;10104;50.732;10.174;2023-02-03T01:12:51;98561.22;;;6.54;100.00
19884;BME280;10104;50.732;10.174;2023-02-03T01:15:13;98549.94;;;6.61;100.00
19884;BME280;10104;50.732;10.174;2023-02-03T01:17:34;98559.03;;;6.67;100.00
19884;BME280;10104;50.732;10.174;2023-02-03T01:19:56;98569.28;;;6.70;100.00
19884;BME280;10104;50.732;10.174;2023-02-03T01:22:17;98560.41;;;6.71;100.00
19884;BME280;10104;50.732;10.174;2023-02-03T01:24:39;98560.88;;;6.66;100.00
19884;BME280;10104;50.732;10.174;2023-02-03T01:27:00;98562.50;;;6.67;100.00
19884;BME280;10104;50.732;10.174;2023-02-03T01:29:22;98557.53;;;6.64;100.00
19884;BME280;10104;50.732;10.174;2023-02-03T01:31:43;98568.34;;;6.61;100.00
19884;BME280;10104;50.732;10.174;2023-02-03T01:34:10;98553.13;;;6.65;100.00
19884;BME280;10104;50.732;10.174;2023-02-03T01:36:33;98558.00;;;6.60;100.00
19884;BME280;10104;50.732;10.174;2023-02-03T01:38:55;98555.50;;;6.58;100.00
19884;BME280;10104;50.732;10.174;2023-02-03T01:41:25;98561.22;;;6.54;100.00
19884;BME280;10104;50.732;10.174;2023-02-03T01:43:52;98559.63;;;6.61;100.00
19884;BME280;10104;50.732;10.174;2023-02-03T01:46:24;98564.13;;;6.50;100.00
19884;BME280;10104;50.732;10.174;2023-02-03T01:48:48;98563.66;;;6.55;100.00
19884;BME280;10104;50.732;10.174;2023-02-03T01:51:09;98545.25;;;6.55;100.00
19884;BME280;10104;50.732;10.174;2023-02-03T01:53:32;98542.69;;;6.45;100.00
19884;BME280;10104;50.732;10.174;2023-02-03T01:55:54;98551.69;;;6.43;100.00
19884;BME280;10104;50.732;10.174;2023-02-03T01:58:20;98541.41;;;6.49;100.00
19884;BME280;10104;50.732;10.174;2023-02-03T02:00:46;98547.81;;;6.47;100.00
19884;BME280;10104;50.732;10.174;2023-02-03T02:03:09;98542.97;;;6.42;100.00
19884;BME280;10104;50.732;10.174;2023-02-03T02:05:56;98554.88;;;6.46;100.00
19884;BME280;10104;50.732;10.174;2023-02-03T02:08:21;98551.28;;;6.38;100.00
19884;BME280;10104;50.732;10.174;2023-02-03T02:10:44;98550.59;;;6.36;100.00
19884;BME280;10104;50.732;10.174;2023-02-03T02:13:07;98547.56;;;6.40;100.00
19884;BME280;10104;50.732;10.174;2023-02-03T02:18:30;98532.03;;;6.47;100.00
19884;BME280;10104;50.732;10.174;2023-02-03T02:26:37;98551.09;;;6.49;100.00
19884;BME280;10104;50.732;10.174;2023-02-03T02:34:21;98542.31;;;6.40;100.00
19884;BME280;10104;50.732;10.174;2023-02-03T02:36:50;98542.81;;;6.44;100.00
19884;BME280;10104;50.732;10.174;2023-02-03T02:39:22;98541.16;;;6.43;100.00
19884;BME280;10104;50.732;10.174;2023-02-03T02:41:55;98547.81;;;6.47;100.00
19884;BME280;10104;50.732;10.174;2023-02-03T02:44:25;98542.56;;;6.37;100.00
19884;BME280;10104;50.732;10.174;2023-02-03T02:46:53;98548.91;;;6.44;100.00
19884;BME280;10104;50.732;10.174;2023-02-03T02:49:24;98558.16;;;6.48;100.00
19884;BME280;10104;50.732;10.174;2023-02-03T02:51:49;98553.59;;;6.50;100.00
19884;BME280;10104;50.732;10.174;2023-02-03T02:54:15;98548.88;;;6.54;100.00
19884;BME280;10104;50.732;10.174;2023-02-03T02:56:39;98558.72;;;6.52;100.00
19884;BME280;10104;50.732;10.174;2023-02-03T02:59:02;98538.19;;;6.56;100.00
19884;BME280;10104;50.732;10.174;2023-02-03T03:01:26;98525.47;;;6.51;100.00
19884;BME280;10104;50.732;10.174;2023-02-03T03:03:47;98523.81;;;6.50;100.00
19884;BME280;10104;50.732;10.174;2023-02-03T03:06:23;98524.50;;;6.52;100.00
19884;BME280;10104;50.732;10.174;2023-02-03T03:08:53;98520.59;;;6.56;100.00
19884;BME280;10104;50.732;10.174;2023-02-03T03:11:17;98511.16;;;6.63;100.00
19884;BME280;10104;50.732;10.174;2023-02-03T03:13:47;98504.16;;;6.54;100.00
19884;BME280;10104;50.732;10.174;2023-02-03T03:16:10;98514.09;;;6.60;100.00
19884;BME280;10104;50.732;10.174;2023-02-03T03:18:45;98497.31;;;6.61;100.00
19884;BME280;10104;50.732;10.174;2023-02-03T03:21:11;98505.38;;;6.60;100.00
19884;BME280;10104;50.732;10.174;2023-02-03T03:23:38;98509.56;;;6.53;100.00
19884;BME280;10104;50.732;10.174;2023-02-03T03:26:08;98504.53;;;6.59;100.00
19884;BME280;10104;50.732;10.174;2023-02-03T03:28:41;98509.63;;;6.61;100.00
19884;BME280;10104;50.732;10.174;2023-02-03T03:31:03;98500.47;;;6.65;100.00
19884;BME280;10104;50.732;10.174;2023-02-03T03:33:25;98503.84;;;6.57;100.00
19884;BME280;10104;50.732;10.174;2023-02-03T03:35:52;98494.97;;;6.58;100.00
19884;BME280;10104;50.732;10.174;2023-02-03T03:38:29;98495.25;;;6.55;100.00
19884;BME280;10104;50.732;10.174;2023-02-03T03:41:04;98467.38;;;6.62;100.00
19884;BME280;10104;50.732;10.174;2023-02-03T03:43:29;98454.69;;;6.58;100.00
19884;BME280;10104;50.732;10.174;2023-02-03T03:46:05;98460.09;;;6.56;100.00
19884;BME280;10104;50.732;10.174;2023-02-03T03:48:48;98479.06;;;6.60;100.00
19884;BME280;10104;50.732;10.174;2023-02-03T03:53:44;98492.81;;;6.54;100.00
19884;BME280;10104;50.732;10.174;2023-02-03T03:56:11;98497.50;;;6.50;100.00
19884;BME280;10104;50.732;10.174;2023-02-03T03:58:37;98483.63;;;6.58;100.00
19884;BME280;10104;50.732;10.174;2023-02-03T04:01:01;98502.88;;;6.58;100.00
19884;BME280;10104;50.732;10.174;2023-02-03T04:03:28;98514.09;;;6.60;100.00
19884;BME280;10104;50.732;10.174;2023-02-03T04:05:50;98504.22;;;6.62;100.00
19884;BME280;10104;50.732;10.174;2023-02-03T04:08:12;98506.84;;;6.62;100.00
19884;BME280;10104;50.732;10.174;2023-02-03T04:10:39;98523.03;;;6.67;100.00
19884;BME280;10104;50.732;10.174;2023-02-03T04:13:01;98541.06;;;6.62;100.00
19884;BME280;10104;50.732;10.174;2023-02-03T04:15:24;98536.34;;;6.66;100.00
19884;BME280;10104;50.732;10.174;2023-02-03T04:17:45;98537.19;;;6.66;100.00
19884;BME280;10104;50.732;10.174;2023-02-03T04:20:07;98530.41;;;6.64;100.00
19884;BME280;10104;50.732;10.174;2023-02-03T04:22:29;98514.22;;;6.59;100.00
19884;BME280;10104;50.732;10.174;2023-02-03T04:24:50;98519.34;;;6.60;100.00
19884;BME280;10104;50.732;10.174;2023-02-03T04:27:12;98518.53;;;6.60;100.00
19884;BME280;10104;50.732;10.174;2023-02-03T04:29:33;98518.06;;;6.64;100.00
19884;BME280;10104;50.732;10.174;2023-02-03T04:31:55;98503.13;;;6.65;100.00
19884;BME280;10104;50.732;10.174;2023-02-03T04:34:16;98498.72;;;6.56;100.00
19884;BME280;10104;50.732;10.174;2023-02-03T04:36:38;98508.53;;;6.63;100.00
19884;BME280;10104;50.732;10.174;2023-02-03T04:38:59;98508.38;;;6.65;100.00
19884;BME280;10104;50.732;10.174;2023-02-03T04:41:21;98485.53;;;6.65;100.00
19884;BME280;10104;50.732;10.174;2023-02-03T04:43:42;98499.66;;;6.64;100.00
19884;BME280;10104;50.732;10.174;2023-02-03T04:46:04;98483.78;;;6.74;100.00
19884;BME280;10104;50.732;10.174;2023-02-03T04:48:26;98461.66;;;6.67;100.00
19884;BME280;10104;50.732;10.174;2023-02-03T04:50:48;98460.56;;;6.69;100.00
19884;BME280;10104;50.732;10.174;2023-02-03T04:53:09;98463.50;;;6.66;100.00
19884;BME280;10104;50.732;10.174;2023-02-03T04:55:31;98456.59;;;6.65;100.00
19884;BME280;10104;50.732;10.174;2023-02-03T04:57:56;98441.63;;;6.66;100.00
19884;BME280;10104;50.732;10.174;2023-02-03T05:00:18;98461.38;;;6.70;100.00
19884;BME280;10104;50.732;10.174;2023-02-03T05:02:40;98453.03;;;6.74;100.00
19884;BME280;10104;50.732;10.174;2023-02-03T05:05:01;98452.44;;;6.80;100.00
19884;BME280;10104;50.732;10.174;2023-02-03T05:07:23;98449.81;;;6.80;100.00
19884;BME280;10104;50.732;10.174;2023-02-03T05:09:44;98462.06;;;6.89;100.00
19884;BME280;10104;50.732;10.174;2023-02-03T05:12:06;98440.34;;;6.87;100.00
19884;BME280;10104;50.732;10.174;2023-02-03T05:14:27;98431.69;;;6.77;100.00
19884;BME280;10104;50.732;10.174;2023-02-03T05:16:49;98452.75;;;6.77;100.00
19884;BME280;10104;50.732;10.174;2023-02-03T05:19:10;98424.09;;;6.74;100.00
19884;BME280;10104;50.732;10.174;2023-02-03T05:21:32;98411.84;;;6.83;100.00
19884;BME280;10104;50.732;10.174;2023-02-03T05:23:53;98402.22;;;6.74;100.00
19884;BME280;10104;50.732;10.174;2023-02-03T05:26:15;98428.00;;;6.70;100.00
19884;BME280;10104;50.732;10.174;2023-02-03T05:28:36;98408.06;;;6.68;100.00
19884;BME280;10104;50.732;10.174;2023-02-03T05:30:59;98419.75;;;6.65;100.00
19884;BME280;10104;50.732;10.174;2023-02-03T05:33:21;98392.28;;;6.68;100.00
19884;BME280;10104;50.732;10.174;2023-02-03T05:35:43;98386.50;;;6.64;100.00
19884;BME280;10104;50.732;10.174;2023-02-03T05:38:04;98385.81;;;6.62;100.00
19884;BME280;10104;50.732;10.174;2023-02-03T05:40:26;98413.88;;;6.71;100.00
19884;BME280;10104;50.732;10.174;2023-02-03T05:43:06;98376.97;;;6.63;100.00
19884;BME280;10104;50.732;10.174;2023-02-03T05:45:28;98420.13;;;6.70;100.00
19884;BME280;10104;50.732;10.174;2023-02-03T05:47:49;98407.94;;;6.69;100.00
19884;BME280;10104;50.732;10.174;2023-02-03T05:50:11;98414.53;;;6.73;100.00
19884;BME280;10104;50.732;10.174;2023-02-03T05:52:32;98414.25;;;6.76;100.00
19884;BME280;10104;50.732;10.174;2023-02-03T05:54:54;98412.22;;;6.70;100.00
19884;BME280;10104;50.732;10.174;2023-02-03T05:57:15;98401.31;;;6.83;100.00
19884;BME280;10104;50.732;10.174;2023-02-03T05:59:38;98394.53;;;6.80;100.00
19884;BME280;10104;50.732;10.174;2023-02-03T06:01:59;98406.28;;;6.68;100.00
19884;BME280;10104;50.732;10.174;2023-02-03T06:04:21;98409.06;;;6.84;100.00
19884;BME280;10104;50.732;10.174;2023-02-03T06:06:42;98398.97;;;6.80;100.00
19884;BME280;10104;50.732;10.174;2023-02-03T06:09:06;98392.72;;;6.81;100.00
19884;BME280;10104;50.732;10.174;2023-02-03T06:11:28;98391.91;;;6.80;100.00
19884;BME280;10104;50.732;10.174;2023-02-03T06:13:50;98396.81;;;6.75;100.00
19884;BME280;10104;50.732;10.174;2023-02-03T06:16:11;98403.13;;;6.82;100.00
19884;BME280;10104;50.732;10.174;2023-02-03T06:18:33;98403.47;;;6.87;100.00
19884;BME280;10104;50.732;10.174;2023-02-03T06:20:54;98419.06;;;6.81;100.00
19884;BME280;10104;50.732;10.174;2023-02-03T06:23:16;98431.53;;;6.79;100.00
19884;BME280;10104;50.732;10.174;2023-02-03T06:25:39;98424.47;;;6.79;100.00
19884;BME280;10104;50.732;10.174;2023-02-03T06:28:00;98415.38;;;6.74;100.00
19884;BME280;10104;50.732;10.174;2023-02-03T06:30:22;98414.09;;;6.78;100.00
19884;BME280;10104;50.732;10.174;2023-02-03T06:32:44;98416.75;;;6.78;100.00
19884;BME280;10104;50.732;10.174;2023-02-03T06:35:05;98411.16;;;6.81;100.00
19884;BME280;10104;50.732;10.174;2023-02-03T06:37:27;98405.75;;;6.82;100.00
19884;BME280;10104;50.732;10.174;2023-02-03T06:39:48;98404.91;;;6.82;100.00
19884;BME280;10104;50.732;10.174;2023-02-03T06:42:10;98419.06;;;6.81;100.00
19884;BME280;10104;50.732;10.174;2023-02-03T06:44:32;98421.00;;;6.79;100.00
19884;BME280;10104;50.732;10.174;2023-02-03T06:46:53;98402.91;;;6.76;100.00
19884;BME280;10104;50.732;10.174;2023-02-03T06:49:17;98391.25;;;6.78;100.00
19884;BME280;10104;50.732;10.174;2023-02-03T06:51:38;98404.78;;;6.83;100.00
19884;BME280;10104;50.732;10.174;2023-02-03T06:54:01;98399.94;;;6.79;100.00
19884;BME280;10104;50.732;10.174;2023-02-03T06:56:23;98398.97;;;6.80;100.00
19884;BME280;10104;50.732;10.174;2023-02-03T06:58:45;98410.78;;;6.76;100.00
19884;BME280;10104;50.732;10.174;2023-02-03T07:01:06;98402.16;;;6.83;100.00
19884;BME280;10104;50.732;10.174;2023-02-03T07:03:28;98401.59;;;6.80;100.00
19884;BME280;10104;50.732;10.174;2023-02-03T07:05:49;98410.47;;;6.79;100.00
19884;BME280;10104;50.732;10.174;2023-02-03T07:08:11;98404.78;;;6.83;100.00
19884;BME280;10104;50.732;10.174;2023-02-03T07:10:32;98402.56;;;6.79;100.00
19884;BME280;10104;50.732;10.174;2023-02-03T07:12:54;98395.22;;;6.82;100.00
19884;BME280;10104;50.732;10.174;2023-02-03T07:15:15;98385.06;;;6.87;100.00
19884;BME280;10104;50.732;10.174;2023-02-03T07:17:37;98392.28;;;6.85;100.00
19884;BME280;10104;50.732;10.174;2023-02-03T07:19:59;98394.75;;;6.87;100.00
19884;BME280;10104;50.732;10.174;2023-02-03T07:22:20;98389.34;;;6.88;100.00
19884;BME280;10104;50.732;10.174;2023-02-03T07:24:42;98402.16;;;6.83;100.00
19884;BME280;10104;50.732;10.174;2023-02-03T07:27:03;98406.03;;;6.79;100.00
19884;BME280;10104;50.732;10.174;2023-02-03T07:29:25;98395.72;;;6.86;100.00
19884;BME280;10104;50.732;10.174;2023-02-03T07:31:46;98374.53;;;6.87;100.00
19884;BME280;10104;50.732;10.174;2023-02-03T07:34:08;98388.22;;;6.91;100.00
19884;BME280;10104;50.732;10.174;2023-02-03T07:36:29;98386.03;;;6.86;100.00
19884;BME280;10104;50.732;10.174;2023-02-03T07:38:51;98373.22;;;6.91;100.00
19884;BME280;10104;50.732;10.174;2023-02-03T07:41:12;98363.53;;;6.92;100.00
19884;BME280;10104;50.732;10.174;2023-02-03T07:43:36;98382.97;;;6.91;100.00
19884;BME280;10104;50.732;10.174;2023-02-03T07:45:58;98341.50;;;6.93;100.00
19884;BME280;10104;50.732;10.174;2023-02-03T07:48:19;98375.25;;;6.98;100.00
19884;BME280;10104;50.732;10.174;2023-02-03T07:50:41;98351.25;;;7.01;100.00
19884;BME280;10104;50.732;10.174;2023-02-03T07:53:02;98363.31;;;7.03;100.00
19884;BME280;10104;50.732;10.174;2023-02-03T07:55:24;98361.19;;;7.07;100.00
19884;BME280;10104;50.732;10.174;2023-02-03T07:57:46;98379.28;;;7.10;100.00
19884;BME280;10104;50.732;10.174;2023-02-03T08:00:10;98379.00;;;7.13;100.00
19884;BME280;10104;50.732;10.174;2023-02-03T08:02:31;98382.97;;;7.17;100.00
19884;BME280;10104;50.732;10.174;2023-02-03T08:04:53;98409.16;;;7.18;100.00
19884;BME280;10104;50.732;10.174;2023-02-03T08:07:15;98375.75;;;7.19;100.00
19884;BME280;10104;50.732;10.174;2023-02-03T08:09:36;98378.38;;;7.19;100.00
19884;BME280;10104;50.732;10.174;2023-02-03T08:11:58;98388.28;;;7.25;100.00
19884;BME280;10104;50.732;10.174;2023-02-03T08:14:19;98384.91;;;7.32;100.00
19884;BME280;10104;50.732;10.174;2023-02-03T08:16:40;98388.09;;;7.18;100.00
19884;BME280;10104;50.732;10.174;2023-02-03T08:19:03;98389.28;;;7.24;100.00
19884;BME280;10104;50.732;10.174;2023-02-03T08:21:24;98382.97;;;7.17;100.00
19884;BME280;10104;50.732;10.174;2023-02-03T08:23:46;98391.25;;;7.22;100.00
19884;BME280;10104;50.732;10.174;2023-02-03T08:26:07;98389.28;;;7.24;100.00
19884;BME280;10104;50.732;10.174;2023-02-03T08:28:29;98392.53;;;7.18;100.00
19884;BME280;10104;50.732;10.174;2023-02-03T08:30:50;98377.06;;;7.23;100.00
19884;BME280;10104;50.732;10.174;2023-02-03T08:33:12;98375.59;;;7.20;100.00
19884;BME280;10104;50.732;10.174;2023-02-03T08:35:33;98359.13;;;7.18;100.00
19884;BME280;10104;50.732;10.174;2023-02-03T08:37:55;98367.34;;;7.15;100.00
19884;BME280;10104;50.732;10.174;2023-02-03T08:40:16;98355.00;;;7.16;100.00
19884;BME280;10104;50.732;10.174;2023-02-03T08:42:38;98367.50;;;7.14;100.00
19884;BME280;10104;50.732;10.174;2023-02-03T08:44:59;98357.00;;;7.22;100.00
19884;BME280;10104;50.732;10.174;2023-02-03T08:47:25;98385.66;;;7.25;100.00
19884;BME280;10104;50.732;10.174;2023-02-03T08:49:46;98373.31;;;7.25;100.00
19884;BME280;10104;50.732;10.174;2023-02-03T08:52:10;98388.91;;;7.19;100.00
19884;BME280;10104;50.732;10.174;2023-02-03T08:54:32;98397.13;;;7.16;100.00
19884;BME280;10104;50.732;10.174;2023-02-03T08:56:54;98396.38;;;7.06;100.00
19884;BME280;10104;50.732;10.174;2023-02-03T08:59:15;98382.94;;;7.09;100.00
19884;BME280;10104;50.732;10.174;2023-02-03T09:01:37;98413.75;;;6.99;100.00
19884;BME280;10104;50.732;10.174;2023-02-03T09:04:01;98397.31;;;6.97;100.00
19884;BME280;10104;50.732;10.174;2023-02-03T09:06:24;98413.25;;;6.95;100.00
19884;BME280;10104;50.732;10.174;2023-02-03T09:08:47;98400.94;;;6.96;100.00
19884;BME280;10104;50.732;10.174;2023-02-03T09:11:13;98390.41;;;6.96;100.00
19884;BME280;10104;50.732;10.174;2023-02-03T09:13:36;98398.59;;;6.93;100.00
19884;BME280;10104;50.732;10.174;2023-02-03T09:15:59;98396.63;;;6.95;100.00
19884;BME280;10104;50.732;10.174;2023-02-03T09:18:21;98407.63;;;6.90;100.00
19884;BME280;10104;50.732;10.174;2023-02-03T09:20:42;98397.59;;;6.94;100.00
19884;BME280;10104;50.732;10.174;2023-02-03T09:23:04;98399.72;;;6.90;100.00
19884;BME280;10104;50.732;10.174;2023-02-03T09:25:25;98393.31;;;6.93;100.00
19884;BME280;10104;50.732;10.174;2023-02-03T09:27:47;98402.41;;;6.98;100.00
19884;BME280;10104;50.732;10.174;2023-02-03T09:30:09;98403.91;;;7.01;100.00
19884;BME280;10104;50.732;10.174;2023-02-03T09:32:31;98389.09;;;7.00;100.00
19884;BME280;10104;50.732;10.174;2023-02-03T09:34:54;98379.09;;;7.03;100.00
19884;BME280;10104;50.732;10.174;2023-02-03T09:37:15;98379.53;;;6.99;100.00
19884;BME280;10104;50.732;10.174;2023-02-03T09:39:37;98362.91;;;6.98;100.00
19884;BME280;10104;50.732;10.174;2023-02-03T09:42:27;98377.94;;;7.06;100.00
19884;BME280;10104;50.732;10.174;2023-02-03T09:47:35;98358.41;;;7.08;100.00
19884;BME280;10104;50.732;10.174;2023-02-03T09:50:00;98336.44;;;7.00;100.00
19884;BME280;10104;50.732;10.174;2023-02-03T09:52:25;98350.28;;;7.02;100.00
19884;BME280;10104;50.732;10.174;2023-02-03T09:54:54;98334.69;;;7.08;100.00
19884;BME280;10104;50.732;10.174;2023-02-03T09:57:21;98337.59;;;6.97;100.00
19884;BME280;10104;50.732;10.174;2023-02-03T09:59:43;98339.28;;;7.06;100.00
19884;BME280;10104;50.732;10.174;2023-02-03T10:05:15;98341.09;;;7.06;100.00
19884;BME280;10104;50.732;10.174;2023-02-03T10:10:28;98334.84;;;7.07;100.00
19884;BME280;10104;50.732;10.174;2023-02-03T10:13:03;98339.75;;;7.02;100.00
19884;BME280;10104;50.732;10.174;2023-02-03T10:18:08;98350.03;;;7.13;100.00
19884;BME280;10104;50.732;10.174;2023-02-03T10:20:40;98332.94;;;7.17;100.00
19884;BME280;10104;50.732;10.174;2023-02-03T10:23:06;98323.56;;;7.14;100.00
19884;BME280;10104;50.732;10.174;2023-02-03T10:25:31;98322.81;;;7.04;100.00
19884;BME280;10104;50.732;10.174;2023-02-03T10:27:55;98322.78;;;7.22;100.00
19884;BME280;10104;50.732;10.174;2023-02-03T10:30:22;98320.09;;;7.14;100.00
19884;BME280;10104;50.732;10.174;2023-02-03T10:32:44;98324.72;;;7.20;100.00
19884;BME280;10104;50.732;10.174;2023-02-03T10:35:13;98324.94;;;7.26;100.00
19884;BME280;10104;50.732;10.174;2023-02-03T10:37:50;98338.72;;;7.20;100.00
19884;BME280;10104;50.732;10.174;2023-02-03T10:40:15;98349.75;;;7.24;100.00
19884;BME280;10104;50.732;10.174;2023-02-03T10:42:37;98334.66;;;7.26;100.00
19884;BME280;10104;50.732;10.174;2023-02-03T10:45:18;98338.72;;;7.20;100.00
19884;BME280;10104;50.732;10.174;2023-02-03T10:47:52;98332.09;;;7.16;100.00
19884;BME280;10104;50.732;10.174;2023-02-03T10:50:18;98339.03;;;7.17;100.00
19884;BME280;10104;50.732;10.174;2023-02-03T10:52:39;98367.22;;;7.25;100.00
19884;BME280;10104;50.732;10.174;2023-02-03T10:55:07;98336.72;;;7.14;100.00
19884;BME280;10104;50.732;10.174;2023-02-03T10:57:29;98345.94;;;7.18;100.00
19884;BME280;10104;50.732;10.174;2023-02-03T10:59:50;98342.28;;;7.11;100.00
19884;BME280;10104;50.732;10.174;2023-02-03T11:02:24;98344.91;;;7.11;100.00
19884;BME280;10104;50.732;10.174;2023-02-03T11:04:47;98326.81;;;7.08;100.00
19884;BME280;10104;50.732;10.174;2023-02-03T11:07:22;98329.44;;;7.08;100.00
19884;BME280;10104;50.732;10.174;2023-02-03T11:09:44;98318.94;;;7.16;100.00
19884;BME280;10104;50.732;10.174;2023-02-03T11:12:12;98337.44;;;7.24;100.00
19884;BME280;10104;50.732;10.174;2023-02-03T11:14:40;98308.78;;;7.21;100.00
19884;BME280;10104;50.732;10.174;2023-02-03T11:17:11;98278.50;;;7.25;100.00
19884;BME280;10104;50.732;10.174;2023-02-03T11:19:37;98257.97;;;7.37;100.00
19884;BME280;10104;50.732;10.174;2023-02-03T11:21:59;98250.94;;;7.54;100.00
19884;BME280;10104;50.732;10.174;2023-02-03T11:24:23;98250.16;;;7.61;100.00
19884;BME280;10104;50.732;10.174;2023-02-03T11:26:49;98221.50;;;7.58;100.00
19884;BME280;10104;50.732;10.174;2023-02-03T11:29:33;98240.59;;;7.60;100.00
19884;BME280;10104;50.732;10.174;2023-02-03T11:31:57;98231.41;;;7.72;100.00
19884;BME280;10104;50.732;10.174;2023-02-03T11:34:29;98249.06;;;7.96;100.00
19884;BME280;10104;50.732;10.174;2023-02-03T11:36:51;98257.28;;;7.85;100.00
19884;BME280;10104;50.732;10.174;2023-02-03T11:39:26;98281.34;;;7.82;100.00
19884;BME280;10104;50.732;10.174;2023-02-03T11:41:48;98285.56;;;7.67;100.00
19884;BME280;10104;50.732;10.174;2023-02-03T11:44:14;98268.75;;;7.60;100.00
19884;BME280;10104;50.732;10.174;2023-02-03T11:46:37;98251.63;;;7.56;100.00
19884;BME280;10104;50.732;10.174;2023-02-03T11:49:10;98267.72;;;7.45;100.00
19884;BME280;10104;50.732;10.174;2023-02-03T11:51:47;98245.66;;;7.46;100.00
19884;BME280;10104;50.732;10.174;2023-02-03T11:56:48;98253.91;;;7.51;100.00
19884;BME280;10104;50.732;10.174;2023-02-03T11:59:45;98264.75;;;7.48;100.00
19884;BME280;10104;50.732;10.174;2023-02-03T12:05:09;98244.69;;;7.47;100.00
19884;BME280;10104;50.732;10.174;2023-02-03T12:07:36;98252.41;;;7.40;100.00
19884;BME280;10104;50.732;10.174;2023-02-03T12:10:33;98254.84;;;7.42;100.00
19884;BME280;10104;50.732;10.174;2023-02-03T12:16:22;98255.19;;;7.39;100.00
19884;BME280;10104;50.732;10.174;2023-02-03T12:19:00;98269.19;;;7.39;100.00
19884;BME280;10104;50.732;10.174;2023-02-03T12:21:40;98243.38;;;7.51;100.00
19884;BME280;10104;50.732;10.174;2023-02-03T12:29:39;98245.50;;;7.47;100.00
19884;BME280;10104;50.732;10.174;2023-02-03T12:32:17;98212.25;;;7.46;100.00
19884;BME280;10104;50.732;10.174;2023-02-03T12:34:51;98233.47;;;7.45;100.00
19884;BME280;10104;50.732;10.174;2023-02-03T12:37:22;98225.13;;;7.57;100.00
19884;BME280;10104;50.732;10.174;2023-02-03T12:39:51;98240.59;;;7.60;100.00
19884;BME280;10104;50.732;10.174;2023-02-03T12:42:27;98234.00;;;7.56;100.00
19884;BME280;10104;50.732;10.174;2023-02-03T12:44:55;98243.72;;;7.56;100.00
19884;BME280;10104;50.732;10.174;2023-02-03T12:49:47;98258.38;;;7.58;100.00
19884;BME280;10104;50.732;10.174;2023-02-03T12:54:54;98245.22;;;7.58;100.00
19884;BME280;10104;50.732;10.174;2023-02-03T12:57:28;98230.72;;;7.62;100.00
19884;BME280;10104;50.732;10.174;2023-02-03T13:00:21;98244.91;;;7.69;100.00
19884;BME280;10104;50.732;10.174;2023-02-03T13:02:59;98247.03;;;7.66;100.00
19884;BME280;10104;50.732;10.174;2023-02-03T13:06:01;98259.75;;;7.70;100.00
19884;BME280;10104;50.732;10.174;2023-02-03T13:08:33;98256.75;;;7.65;100.00
19884;BME280;10104;50.732;10.174;2023-02-03T13:11:09;98244.38;;;7.66;100.00
19884;BME280;10104;50.732;10.174;2023-02-03T13:13:41;98252.97;;;7.68;100.00
19884;BME280;10104;50.732;10.174;2023-02-03T13:16:07;98262.88;;;7.74;100.00
19884;BME280;10104;50.732;10.174;2023-02-03T13:18:33;98261.03;;;7.66;100.00
19884;BME280;10104;50.732;10.174;2023-02-03T13:20:57;98271.56;;;7.66;100.00
19884;BME280;10104;50.732;10.174;2023-02-03T13:23:19;98238.97;;;7.67;100.00
19884;BME280;10104;50.732;10.174;2023-02-03T13:41:48;98259.94;;;7.77;100.00